createdAt,value
2022-08-28T00:00:23.801Z,2.05
2022-08-28T00:02:50.542Z,1.98
2022-08-28T00:05:18.388Z,2.40
2022-08-28T00:07:47.854Z,2.40
2022-08-28T00:10:14.980Z,2.13
2022-08-28T00:12:41.735Z,2.35
2022-08-28T00:15:11.908Z,2.40
2022-08-28T00:17:39.720Z,2.00
2022-08-28T00:20:07.147Z,1.98
2022-08-28T00:22:33.740Z,2.30
2022-08-28T00:25:00.494Z,2.38
2022-08-28T00:27:27.299Z,2.45
2022-08-28T00:29:53.921Z,2.30
2022-08-28T00:32:20.942Z,2.22
2022-08-28T00:34:47.633Z,2.45
2022-08-28T00:37:14.256Z,2.17
2022-08-28T00:39:41.004Z,2.20
2022-08-28T00:42:08.339Z,2.40
2022-08-28T00:44:35.088Z,2.22
2022-08-28T00:47:01.849Z,2.53
2022-08-28T00:49:33.744Z,2.40
2022-08-28T00:52:00.674Z,2.65
2022-08-28T00:54:27.505Z,3.25
2022-08-28T00:56:55.117Z,2.80
2022-08-28T00:59:24.244Z,2.30
2022-08-28T01:01:52.291Z,2.67
2022-08-28T01:04:19.339Z,2.83
2022-08-28T01:06:46.434Z,2.83
2022-08-28T01:09:13.071Z,2.50
2022-08-28T01:11:40.430Z,3.08
2022-08-28T01:14:07.093Z,2.75
2022-08-28T01:16:33.998Z,2.63
2022-08-28T01:19:01.723Z,2.90
2022-08-28T01:21:30.995Z,2.70
2022-08-28T01:24:02.588Z,2.30
2022-08-28T01:26:29.285Z,2.25
2022-08-28T01:28:56.972Z,2.30
2022-08-28T01:31:23.910Z,3.33
2022-08-28T01:33:50.685Z,3.08
2022-08-28T01:36:17.668Z,2.90
2022-08-28T01:38:46.161Z,2.45
2022-08-28T01:41:13.093Z,3.05
2022-08-28T01:43:40.187Z,2.50
2022-08-28T01:46:07.165Z,3.00
2022-08-28T01:48:35.585Z,3.25
2022-08-28T01:51:03.314Z,3.17
2022-08-28T01:53:32.966Z,3.20
2022-08-28T01:56:01.338Z,3.20
2022-08-28T01:58:29.012Z,2.83
2022-08-28T02:00:56.909Z,3.55
2022-08-28T02:03:23.584Z,3.58
2022-08-28T02:05:50.236Z,3.47
2022-08-28T02:08:17.014Z,3.83
2022-08-28T02:10:44.026Z,3.25
2022-08-28T02:13:10.719Z,3.13
2022-08-28T02:15:37.848Z,3.30
2022-08-28T02:18:04.840Z,3.13
2022-08-28T02:20:31.784Z,3.00
2022-08-28T02:22:58.478Z,3.80
2022-08-28T02:25:25.527Z,3.78
2022-08-28T02:27:52.145Z,2.95
2022-08-28T02:30:18.867Z,3.55
2022-08-28T02:32:45.824Z,3.78
2022-08-28T02:35:13.723Z,3.58
2022-08-28T02:37:40.369Z,3.88
2022-08-28T02:40:07.672Z,3.40
2022-08-28T02:42:34.410Z,3.70
2022-08-28T02:45:00.997Z,4.00
2022-08-28T02:47:27.648Z,4.07
2022-08-28T02:49:54.279Z,3.50
2022-08-28T02:52:20.868Z,3.85
2022-08-28T02:54:47.668Z,3.58
2022-08-28T02:57:14.698Z,4.07
2022-08-28T02:59:41.359Z,4.10
2022-08-28T03:02:08.009Z,3.97
2022-08-28T03:04:35.173Z,4.15
2022-08-28T03:07:01.877Z,3.60
2022-08-28T03:09:28.506Z,3.67
2022-08-28T03:11:55.164Z,4.50
2022-08-28T03:14:22.329Z,4.05
2022-08-28T03:16:49.402Z,4.50
2022-08-28T03:19:16.219Z,4.03
2022-08-28T03:21:42.900Z,4.05
2022-08-28T03:24:09.799Z,4.43
2022-08-28T03:26:36.421Z,4.90
2022-08-28T03:29:03.202Z,4.00
2022-08-28T03:31:29.942Z,3.88
2022-08-28T03:33:56.705Z,3.78
2022-08-28T03:36:25.413Z,4.55
2022-08-28T03:38:52.933Z,3.83
2022-08-28T03:41:21.069Z,3.65
2022-08-28T03:43:47.730Z,3.42
2022-08-28T03:46:19.286Z,4.38
2022-08-28T03:48:46.181Z,3.67
2022-08-28T03:51:15.907Z,4.57
2022-08-28T03:53:44.417Z,4.55
2022-08-28T03:56:12.759Z,4.28
2022-08-28T03:58:40.014Z,4.32
2022-08-28T04:01:06.938Z,4.40
2022-08-28T04:03:33.895Z,3.38
2022-08-28T04:06:00.795Z,4.38
2022-08-28T04:08:27.727Z,4.15
2022-08-28T04:10:54.563Z,4.20
2022-08-28T04:13:21.398Z,3.83
2022-08-28T04:16:01.466Z,4.25
2022-08-28T04:18:30.030Z,4.75
2022-08-28T04:21:05.423Z,4.30
2022-08-28T04:23:32.236Z,4.05
2022-08-28T04:25:58.843Z,4.68
2022-08-28T04:28:25.661Z,4.93
2022-08-28T04:30:52.981Z,4.25
2022-08-28T04:33:19.714Z,4.80
2022-08-28T04:35:46.390Z,3.90
2022-08-28T04:38:13.351Z,4.35
2022-08-28T04:40:40.694Z,4.07
2022-08-28T04:43:07.394Z,3.97
2022-08-28T04:45:38.247Z,3.78
2022-08-28T04:48:05.384Z,3.75
2022-08-28T04:50:37.021Z,3.85
2022-08-28T04:53:03.699Z,4.30
2022-08-28T04:55:54.351Z,4.10
2022-08-28T04:58:23.787Z,4.10
2022-08-28T05:00:54.724Z,3.72
2022-08-28T05:03:22.209Z,4.30
2022-08-28T05:05:54.220Z,5.00
2022-08-28T05:08:25.178Z,4.05
2022-08-28T05:10:52.144Z,5.57
2022-08-28T05:13:19.665Z,4.88
2022-08-28T05:15:48.979Z,4.38
2022-08-28T05:18:18.960Z,4.10
2022-08-28T05:20:47.414Z,4.30
2022-08-28T05:23:19.260Z,4.80
2022-08-28T05:25:50.514Z,4.00
2022-08-28T05:28:17.903Z,4.40
2022-08-28T05:30:45.051Z,4.03
2022-08-28T05:33:12.933Z,4.90
2022-08-28T05:35:41.770Z,4.90
2022-08-28T05:38:08.771Z,5.95
2022-08-28T05:40:44.274Z,4.72
2022-08-28T05:43:12.497Z,4.43
2022-08-28T05:45:42.455Z,4.25
2022-08-28T05:48:10.407Z,4.18
2022-08-28T05:50:39.155Z,3.97
2022-08-28T05:53:10.466Z,4.90
2022-08-28T05:55:40.669Z,5.38
2022-08-28T05:58:08.303Z,4.57
2022-08-28T06:00:41.401Z,4.70
2022-08-28T06:03:08.643Z,4.90
2022-08-28T06:05:36.033Z,5.38
2022-08-28T06:08:03.154Z,6.75
2022-08-28T06:10:32.686Z,6.88
2022-08-28T06:13:01.313Z,5.93
2022-08-28T06:15:28.967Z,5.45
2022-08-28T06:17:56.352Z,5.13
2022-08-28T06:20:26.126Z,5.32
2022-08-28T06:22:53.138Z,4.90
2022-08-28T06:25:20.682Z,5.18
2022-08-28T06:27:52.236Z,4.97
2022-08-28T06:30:19.543Z,5.15
2022-08-28T06:38:10.697Z,4.25
2022-08-28T06:41:39.068Z,4.43
2022-08-28T06:44:48.699Z,4.50
2022-08-28T06:51:57.961Z,4.35
2022-08-28T06:57:51.621Z,4.70
2022-08-28T07:00:18.851Z,4.20
2022-08-28T07:02:46.048Z,5.13
2022-08-28T07:05:12.745Z,4.18
2022-08-28T07:07:39.370Z,4.57
2022-08-28T07:10:06.301Z,4.93
2022-08-28T07:12:33.395Z,4.30
2022-08-28T07:15:00.096Z,4.70
2022-08-28T07:17:26.773Z,4.60
2022-08-28T07:19:53.627Z,4.53
2022-08-28T07:22:21.445Z,4.60
2022-08-28T07:24:48.061Z,4.60
2022-08-28T07:27:18.781Z,4.78
2022-08-28T07:29:45.740Z,4.38
2022-08-28T07:32:12.337Z,4.68
2022-08-28T07:34:39.104Z,4.85
2022-08-28T07:37:08.144Z,5.00
2022-08-28T07:39:36.724Z,5.03
2022-08-28T07:42:03.492Z,4.15
2022-08-28T07:44:30.175Z,4.40
2022-08-28T07:46:57.988Z,4.38
2022-08-28T07:49:24.822Z,4.32
2022-08-28T07:51:53.891Z,3.88
2022-08-28T07:54:21.437Z,4.43
2022-08-28T07:56:48.034Z,4.15
2022-08-28T07:59:16.643Z,4.43
2022-08-28T08:01:44.255Z,4.13
2022-08-28T08:04:11.276Z,4.10
2022-08-28T08:06:38.007Z,4.40
2022-08-28T08:09:05.464Z,4.20
2022-08-28T08:11:32.795Z,3.38
2022-08-28T08:14:00.553Z,3.88
2022-08-28T08:16:27.592Z,3.63
2022-08-28T08:18:54.596Z,3.88
2022-08-28T08:21:21.608Z,3.97
2022-08-28T08:23:48.792Z,3.75
2022-08-28T08:26:17.963Z,3.58
2022-08-28T08:28:44.814Z,3.58
2022-08-28T08:31:19.699Z,4.05
2022-08-28T08:33:48.028Z,3.55
2022-08-28T08:36:16.010Z,3.78
2022-08-28T08:38:42.814Z,3.47
2022-08-28T08:41:22.923Z,3.45
2022-08-28T08:43:57.941Z,3.20
2022-08-28T08:46:31.367Z,3.13
2022-08-28T08:49:01.189Z,3.47
2022-08-28T08:51:37.230Z,3.97
2022-08-28T08:54:06.087Z,3.95
2022-08-28T08:56:34.465Z,4.10
2022-08-28T08:59:01.965Z,3.95
2022-08-28T09:01:35.927Z,3.88
2022-08-28T09:04:16.399Z,4.03
2022-08-28T09:09:56.490Z,3.05
2022-08-28T09:12:27.813Z,3.55
2022-08-28T09:14:58.116Z,3.30
2022-08-28T09:17:27.749Z,3.53
2022-08-28T09:19:54.563Z,3.72
2022-08-28T09:22:21.166Z,3.08
2022-08-28T09:24:47.932Z,3.67
2022-08-28T09:27:33.381Z,3.60
2022-08-28T09:30:08.634Z,3.63
2022-08-28T09:32:37.306Z,3.55
2022-08-28T09:35:36.258Z,3.40
2022-08-28T09:38:18.051Z,3.25
2022-08-28T09:40:44.882Z,3.20
2022-08-28T09:43:17.299Z,3.30
2022-08-28T09:45:44.914Z,2.95
2022-08-28T09:48:23.325Z,3.10
2022-08-28T09:51:13.383Z,3.08
2022-08-28T09:53:56.153Z,2.72
2022-08-28T09:56:34.497Z,2.97
2022-08-28T09:59:07.173Z,2.75
2022-08-28T10:01:46.382Z,2.63
2022-08-28T10:04:12.906Z,2.88
2022-08-28T10:06:39.571Z,2.53
2022-08-28T10:09:25.486Z,2.88
2022-08-28T10:12:19.720Z,2.88
2022-08-28T10:14:49.208Z,3.13
2022-08-28T10:17:28.722Z,2.70
2022-08-28T10:20:01.502Z,2.95
2022-08-28T10:22:46.171Z,2.63
2022-08-28T10:25:34.577Z,2.93
2022-08-28T10:28:27.726Z,2.78
2022-08-28T10:31:21.111Z,2.55
2022-08-28T10:34:06.915Z,2.70
2022-08-28T10:36:35.161Z,2.60
2022-08-28T10:39:20.065Z,2.92
2022-08-28T10:41:54.060Z,2.53
2022-08-28T10:44:39.361Z,3.00
2022-08-28T10:47:06.098Z,2.60
2022-08-28T10:49:37.219Z,2.65
2022-08-28T10:52:04.573Z,2.40
2022-08-28T10:54:41.590Z,3.05
2022-08-28T10:57:30.699Z,2.80
2022-08-28T10:59:58.597Z,2.70
2022-08-28T11:02:26.219Z,2.63
2022-08-28T11:04:58.362Z,2.80
2022-08-28T11:07:55.364Z,2.22
2022-08-28T11:10:33.898Z,2.35
2022-08-28T11:13:01.005Z,2.80
2022-08-28T11:15:34.218Z,2.72
2022-08-28T11:18:11.841Z,2.97
2022-08-28T11:20:38.521Z,2.80
2022-08-28T11:23:32.951Z,2.30
2022-08-28T11:26:03.985Z,2.33
2022-08-28T11:28:36.826Z,2.63
2022-08-28T11:31:06.658Z,2.13
2022-08-28T11:33:40.994Z,2.58
2022-08-28T11:36:33.109Z,2.43
2022-08-28T11:39:17.755Z,2.63
2022-08-28T11:42:09.337Z,2.55
2022-08-28T11:44:41.992Z,2.17
2022-08-28T11:47:38.657Z,2.40
2022-08-28T11:50:23.110Z,1.95
2022-08-28T11:53:16.765Z,2.22
2022-08-28T11:56:13.734Z,2.05
2022-08-28T11:59:35.552Z,2.10
2022-08-28T12:02:39.721Z,2.58
2022-08-28T12:05:08.890Z,2.30
2022-08-28T12:07:37.878Z,2.40
2022-08-28T12:10:24.669Z,2.33
2022-08-28T12:13:00.386Z,2.22
2022-08-28T12:15:30.041Z,2.42
2022-08-28T12:18:11.603Z,2.70
2022-08-28T12:20:57.246Z,2.40
2022-08-28T12:25:57.800Z,2.03
2022-08-28T12:28:39.848Z,2.28
2022-08-28T12:31:09.423Z,2.42
2022-08-28T12:34:16.973Z,2.13
2022-08-28T12:36:43.897Z,2.00
2022-08-28T12:39:16.153Z,2.10
2022-08-28T12:41:43.480Z,2.00
2022-08-28T12:44:10.310Z,2.40
2022-08-28T12:46:37.509Z,2.15
2022-08-28T12:49:05.770Z,2.17
2022-08-28T12:51:34.108Z,2.30
2022-08-28T12:54:04.653Z,2.10
2022-08-28T12:56:36.027Z,2.10
2022-08-28T12:59:21.864Z,1.88
2022-08-28T13:01:54.088Z,2.00
2022-08-28T13:04:41.026Z,2.00
2022-08-28T13:07:10.844Z,1.90
2022-08-28T13:09:38.060Z,1.90
2022-08-28T13:12:07.221Z,2.22
2022-08-28T13:14:42.741Z,2.05
2022-08-28T13:17:10.394Z,2.25
2022-08-28T13:19:37.457Z,1.83
2022-08-28T13:22:34.390Z,2.05
2022-08-28T13:25:02.681Z,2.10
2022-08-28T13:27:29.475Z,2.10
2022-08-28T13:30:05.623Z,2.15
2022-08-28T13:32:33.787Z,2.35
2022-08-28T13:35:20.348Z,2.05
2022-08-28T13:37:57.858Z,2.25
2022-08-28T13:43:16.402Z,2.20
2022-08-28T13:45:45.115Z,2.33
2022-08-28T13:48:12.991Z,2.05
2022-08-28T13:50:40.131Z,1.77
2022-08-28T13:53:06.888Z,2.00
2022-08-28T13:55:33.706Z,1.80
2022-08-28T13:58:00.445Z,1.90
2022-08-28T14:00:27.116Z,2.30
2022-08-28T14:02:53.833Z,2.05
2022-08-28T14:05:20.492Z,2.03
2022-08-28T14:07:47.173Z,2.08
2022-08-28T14:10:13.896Z,2.25
2022-08-28T14:12:40.584Z,2.05
2022-08-28T14:15:07.589Z,2.00
2022-08-28T14:17:34.221Z,1.98
2022-08-28T14:20:00.963Z,2.63
2022-08-28T14:22:27.740Z,2.00
2022-08-28T14:24:54.414Z,1.95
2022-08-28T14:27:21.205Z,1.65
2022-08-28T14:29:47.961Z,1.85
2022-08-28T14:32:14.931Z,1.85
2022-08-28T14:34:41.694Z,1.88
2022-08-28T14:37:08.406Z,2.20
2022-08-28T14:39:35.186Z,1.75
2022-08-28T14:42:04.113Z,1.90
2022-08-28T14:44:38.279Z,1.70
2022-08-28T14:47:05.094Z,1.85
2022-08-28T14:49:31.755Z,2.40
2022-08-28T14:51:58.475Z,2.00
2022-08-28T14:54:25.223Z,2.00
2022-08-28T14:56:52.078Z,1.90
2022-08-28T14:59:23.972Z,2.03
2022-08-28T15:01:51.378Z,2.00
2022-08-28T15:04:20.772Z,1.77
2022-08-28T15:06:49.490Z,1.85
2022-08-28T15:09:16.376Z,1.70
2022-08-28T15:11:43.742Z,2.00
2022-08-28T15:14:10.831Z,1.98
2022-08-28T15:16:45.577Z,1.70
2022-08-28T15:19:12.885Z,1.90
2022-08-28T15:21:48.612Z,1.45
2022-08-28T15:24:16.364Z,1.80
2022-08-28T15:26:43.167Z,2.03
2022-08-28T15:29:09.907Z,1.70
2022-08-28T15:31:40.013Z,2.05
2022-08-28T15:34:23.046Z,1.80
2022-08-28T15:36:55.555Z,1.65
2022-08-28T15:39:26.945Z,2.03
2022-08-28T15:41:53.917Z,2.03
2022-08-28T15:44:20.560Z,1.98
2022-08-28T15:46:52.727Z,2.17
2022-08-28T15:49:19.522Z,1.90
2022-08-28T15:51:46.542Z,2.10
2022-08-28T15:54:13.258Z,1.65
2022-08-28T15:56:40.196Z,2.28
2022-08-28T15:59:10.193Z,1.90
2022-08-28T16:01:36.877Z,1.83
2022-08-28T16:04:04.644Z,1.65
2022-08-28T16:06:31.400Z,1.88
2022-08-28T16:08:58.093Z,2.33
2022-08-28T16:11:24.906Z,1.88
2022-08-28T16:13:51.872Z,2.17
2022-08-28T16:16:18.700Z,1.95
2022-08-28T16:18:45.785Z,1.83
2022-08-28T16:21:12.659Z,2.00
2022-08-28T16:23:39.381Z,1.83
2022-08-28T16:26:06.531Z,2.00
2022-08-28T16:28:33.558Z,1.63
2022-08-28T16:31:05.109Z,1.90
2022-08-28T16:33:34.445Z,2.10
2022-08-28T16:36:01.203Z,2.03
2022-08-28T16:38:27.852Z,1.92
2022-08-28T16:40:54.536Z,2.00
2022-08-28T16:43:21.140Z,1.50
2022-08-28T16:45:47.923Z,1.70
2022-08-28T16:48:15.150Z,1.55
2022-08-28T16:50:42.519Z,1.80
2022-08-28T16:53:09.162Z,1.70
2022-08-28T16:55:36.017Z,2.17
2022-08-28T16:58:03.387Z,1.67
2022-08-28T17:00:30.234Z,1.60
2022-08-28T17:02:57.250Z,2.08
2022-08-28T17:05:23.978Z,1.75
2022-08-28T17:07:50.771Z,1.80
2022-08-28T17:10:18.874Z,2.00
2022-08-28T17:12:45.561Z,1.58
2022-08-28T17:15:12.289Z,1.95
2022-08-28T17:17:38.879Z,3.42
2022-08-28T17:20:08.716Z,2.50
2022-08-28T17:22:35.389Z,2.13
2022-08-28T17:25:03.842Z,2.05
2022-08-28T17:27:30.547Z,1.67
2022-08-28T17:29:57.220Z,2.00
2022-08-28T17:32:23.987Z,2.10
2022-08-28T17:34:50.713Z,1.98
2022-08-28T17:37:17.380Z,1.92
2022-08-28T17:39:44.051Z,2.20
2022-08-28T17:42:10.851Z,2.20
2022-08-28T17:44:37.629Z,2.10
2022-08-28T17:47:04.384Z,1.83
2022-08-28T17:49:31.778Z,1.45
2022-08-28T17:51:58.552Z,1.48
2022-08-28T17:54:25.274Z,2.10
2022-08-28T17:56:52.509Z,2.10
2022-08-28T17:59:19.256Z,2.10
2022-08-28T18:01:45.956Z,2.05
2022-08-28T18:04:13.585Z,2.45
2022-08-28T18:06:40.468Z,2.13
2022-08-28T18:09:07.816Z,1.85
2022-08-28T18:11:34.570Z,2.20
2022-08-28T18:14:01.192Z,1.90
2022-08-28T18:16:31.421Z,1.88
2022-08-28T18:19:01.942Z,2.22
2022-08-28T18:21:28.739Z,2.05
2022-08-28T18:23:55.378Z,1.63
2022-08-28T18:26:22.142Z,2.13
2022-08-28T18:28:49.009Z,2.17
2022-08-28T18:31:16.785Z,2.10
2022-08-28T18:33:43.609Z,2.30
2022-08-28T18:36:11.304Z,2.17
2022-08-28T18:38:38.229Z,1.92
2022-08-28T18:41:05.377Z,2.33
2022-08-28T18:43:32.024Z,2.30
2022-08-28T18:45:59.400Z,2.13
2022-08-28T18:48:26.197Z,2.22
2022-08-28T18:50:52.851Z,2.65
2022-08-28T18:53:21.534Z,2.25
2022-08-28T18:55:50.555Z,1.92
2022-08-28T18:58:21.061Z,2.20
2022-08-28T19:00:48.005Z,2.33
2022-08-28T19:03:14.665Z,2.40
2022-08-28T19:05:41.405Z,2.25
2022-08-28T19:08:08.078Z,2.30
2022-08-28T19:10:35.334Z,2.35
2022-08-28T19:13:02.342Z,2.53
2022-08-28T19:15:29.271Z,2.38
2022-08-28T19:17:56.151Z,2.35
2022-08-28T19:20:22.892Z,2.20
2022-08-28T19:22:49.823Z,2.45
2022-08-28T19:25:27.464Z,2.13
2022-08-28T19:27:59.360Z,2.25
2022-08-28T19:30:26.696Z,2.20
2022-08-28T19:32:53.425Z,2.80
2022-08-28T19:35:20.532Z,2.60
2022-08-28T19:37:51.385Z,2.30
2022-08-28T19:40:18.728Z,2.38
2022-08-28T19:42:45.541Z,2.38
2022-08-28T19:45:12.971Z,2.47
2022-08-28T19:47:39.665Z,2.92
2022-08-28T19:50:07.217Z,2.40
2022-08-28T19:52:34.630Z,2.60
2022-08-28T19:55:01.367Z,2.92
2022-08-28T19:57:28.040Z,2.67
2022-08-28T19:59:54.729Z,2.92
2022-08-28T20:02:21.385Z,3.10
2022-08-28T20:04:48.229Z,2.80
2022-08-28T20:07:14.892Z,2.70
2022-08-28T20:09:41.631Z,2.45
2022-08-28T20:12:08.352Z,2.80
2022-08-28T20:14:35.064Z,2.70
2022-08-28T20:17:02.096Z,2.58
2022-08-28T20:19:28.757Z,2.70
2022-08-28T20:21:55.986Z,2.60
2022-08-28T20:24:23.067Z,2.70
2022-08-28T20:26:50.164Z,2.65
2022-08-28T20:29:16.905Z,2.60
2022-08-28T20:31:45.709Z,2.25
2022-08-28T20:34:12.450Z,2.80
2022-08-28T20:36:39.109Z,2.55
2022-08-28T20:39:06.091Z,2.63
2022-08-28T20:41:32.841Z,2.80
2022-08-28T20:43:59.607Z,2.67
2022-08-28T20:46:26.683Z,3.08
2022-08-28T20:48:53.506Z,2.67
2022-08-28T20:51:20.210Z,2.97
2022-08-28T20:53:46.959Z,2.47
2022-08-28T20:56:13.671Z,2.55
2022-08-28T20:58:40.377Z,2.88
2022-08-28T21:01:07.080Z,2.72
2022-08-28T21:03:33.753Z,2.58
2022-08-28T21:06:00.416Z,2.75
2022-08-28T21:08:27.134Z,2.72
2022-08-28T21:10:53.792Z,2.95
2022-08-28T21:13:20.749Z,2.72
2022-08-28T21:15:47.453Z,3.08
2022-08-28T21:18:14.224Z,3.08
2022-08-28T21:20:40.892Z,2.88
2022-08-28T21:23:07.595Z,2.78
2022-08-28T21:25:34.173Z,2.85
2022-08-28T21:28:04.344Z,2.85
2022-08-28T21:30:31.146Z,3.03
2022-08-28T21:32:57.847Z,2.78
2022-08-28T21:35:24.543Z,2.83
2022-08-28T21:37:51.223Z,2.75
2022-08-28T21:40:18.235Z,3.10
2022-08-28T21:42:44.892Z,3.00
2022-08-28T21:45:12.334Z,2.92
2022-08-28T21:47:39.709Z,2.90
2022-08-28T21:50:07.289Z,2.88
2022-08-28T21:52:34.009Z,3.00
2022-08-28T21:55:02.575Z,3.15
2022-08-28T21:57:29.470Z,2.80
2022-08-28T21:59:56.168Z,2.70
2022-08-28T22:02:23.005Z,2.50
2022-08-28T22:04:49.830Z,2.70
2022-08-28T22:07:17.256Z,2.72
2022-08-28T22:09:44.365Z,2.65
2022-08-28T22:12:11.014Z,2.88
2022-08-28T22:14:37.805Z,2.63
2022-08-28T22:17:10.157Z,2.58
2022-08-28T22:19:38.565Z,2.35
2022-08-28T22:22:05.271Z,2.85
2022-08-28T22:24:31.952Z,2.97
2022-08-28T22:26:58.753Z,2.90
2022-08-28T22:29:25.671Z,2.88
2022-08-28T22:31:52.440Z,2.63
2022-08-28T22:34:19.142Z,2.78
2022-08-28T22:36:45.866Z,3.00
2022-08-28T22:39:12.545Z,2.70
2022-08-28T22:41:39.336Z,2.75
2022-08-28T22:44:05.985Z,2.75
2022-08-28T22:46:32.637Z,2.53
2022-08-28T22:48:59.385Z,2.63
2022-08-28T22:51:26.159Z,2.83
2022-08-28T22:53:52.846Z,2.80
2022-08-28T22:56:19.501Z,3.03
2022-08-28T22:58:46.100Z,2.70
2022-08-28T23:01:18.125Z,2.88
2022-08-28T23:03:44.922Z,2.83
2022-08-28T23:06:11.719Z,2.40
2022-08-28T23:08:38.369Z,2.40
2022-08-28T23:11:05.091Z,2.55
2022-08-28T23:13:31.847Z,2.75
2022-08-28T23:15:59.394Z,2.60
2022-08-28T23:18:26.013Z,2.97
2022-08-28T23:20:54.496Z,2.83
2022-08-28T23:23:21.164Z,2.60
2022-08-28T23:25:47.864Z,3.05
2022-08-28T23:28:14.641Z,2.60
2022-08-28T23:30:48.231Z,2.60
2022-08-28T23:33:19.721Z,3.05
2022-08-28T23:35:50.340Z,2.80
2022-08-28T23:38:17.011Z,2.45
2022-08-28T23:40:44.229Z,3.03
2022-08-28T23:43:11.141Z,2.38
2022-08-28T23:45:39.463Z,2.55
2022-08-28T23:48:06.400Z,2.70
2022-08-28T23:50:33.311Z,3.00
2022-08-28T23:53:01.860Z,2.83
2022-08-28T23:55:28.917Z,2.95
2022-08-28T23:57:55.759Z,2.70
